Aracati, Brazil
Current Conditions -  °F | °C
As of 5:00 PM on Sunday 21 Dec 2014 (Local Time) from SBFZ Reporting Station
Clear Clear  
Wind Chill: 82°   Ceiling: Unl
Heat Index: 85°   Visibility: 6mi
Dew Point: 68°   Wind: 16mph
Humidity: 62%   Direction: 90°E
Pressure: 29.83"   Gusts: NA
Location:  4.56°S, 37.77°W
Report Text: SBFZ 212000Z 09014KT CAVOK 28/20 Q1010
Loading
Personal Weather Stations






























Interactive Weather Map New forecast layout! Learn more

10-Day Weather Forecast

Advertisements
Track Severe Weather on mobile